sensor_id;sensor_type;location;lat;lon;timestamp;P1;durP1;ratioP1;P2;durP2;ratioP2
8982;SDS011;20979;59.850;10.660;2023-04-01T00:01:34;2.47;;;1.70;;
8982;SDS011;20979;59.850;10.660;2023-04-01T00:04:03;2.10;;;1.70;;
8982;SDS011;20979;59.850;10.660;2023-04-01T00:06:30;1.63;;;1.47;;
8982;SDS011;20979;59.850;10.660;2023-04-01T00:08:58;2.10;;;1.77;;
8982;SDS011;20979;59.850;10.660;2023-04-01T00:11:25;3.40;;;1.70;;
8982;SDS011;20979;59.850;10.660;2023-04-01T00:13:53;2.77;;;1.70;;
8982;SDS011;20979;59.850;10.660;2023-04-01T00:16:20;2.27;;;1.73;;
8982;SDS011;20979;59.850;10.660;2023-04-01T00:18:48;1.83;;;1.60;;
8982;SDS011;20979;59.850;10.660;2023-04-01T00:21:17;1.53;;;1.43;;
8982;SDS011;20979;59.850;10.660;2023-04-01T00:23:45;1.63;;;1.37;;
8982;SDS011;20979;59.850;10.660;2023-04-01T00:26:12;2.90;;;1.73;;
8982;SDS011;20979;59.850;10.660;2023-04-01T00:28:44;1.83;;;1.60;;
8982;SDS011;20979;59.850;10.660;2023-04-01T00:31:11;2.67;;;1.60;;
8982;SDS011;20979;59.850;10.660;2023-04-01T00:33:39;1.53;;;1.40;;
8982;SDS011;20979;59.850;10.660;2023-04-01T00:36:08;1.70;;;1.60;;
8982;SDS011;20979;59.850;10.660;2023-04-01T00:38:37;2.27;;;1.23;;
8982;SDS011;20979;59.850;10.660;2023-04-01T00:41:04;2.50;;;1.43;;
8982;SDS011;20979;59.850;10.660;2023-04-01T00:43:32;2.37;;;1.47;;
8982;SDS011;20979;59.850;10.660;2023-04-01T00:45:59;1.60;;;1.50;;
8982;SDS011;20979;59.850;10.660;2023-04-01T00:48:27;1.53;;;1.43;;
8982;SDS011;20979;59.850;10.660;2023-04-01T00:50:56;1.53;;;1.40;;
8982;SDS011;20979;59.850;10.660;2023-04-01T00:53:25;1.90;;;1.63;;
8982;SDS011;20979;59.850;10.660;2023-04-01T00:55:55;1.60;;;1.50;;
8982;SDS011;20979;59.850;10.660;2023-04-01T00:58:24;1.60;;;1.30;;
8982;SDS011;20979;59.850;10.660;2023-04-01T01:00:53;1.63;;;1.50;;
8982;SDS011;20979;59.850;10.660;2023-04-01T01:03:21;2.87;;;1.67;;
8982;SDS011;20979;59.850;10.660;2023-04-01T01:05:55;1.20;;;1.20;;
8982;SDS011;20979;59.850;10.660;2023-04-01T01:08:29;1.60;;;1.50;;
8982;SDS011;20979;59.850;10.660;2023-04-01T01:11:04;2.70;;;1.40;;
8982;SDS011;20979;59.850;10.660;2023-04-01T01:13:33;2.73;;;1.50;;
8982;SDS011;20979;59.850;10.660;2023-04-01T01:16:04;4.07;;;1.67;;
8982;SDS011;20979;59.850;10.660;2023-04-01T01:18:33;2.17;;;1.50;;
8982;SDS011;20979;59.850;10.660;2023-04-01T01:21:16;1.27;;;1.17;;
8982;SDS011;20979;59.850;10.660;2023-04-01T01:23:53;1.27;;;1.20;;
8982;SDS011;20979;59.850;10.660;2023-04-01T01:29:31;1.87;;;1.40;;
8982;SDS011;20979;59.850;10.660;2023-04-01T01:32:01;1.40;;;1.30;;
8982;SDS011;20979;59.850;10.660;2023-04-01T01:34:31;1.27;;;1.17;;
8982;SDS011;20979;59.850;10.660;2023-04-01T01:37:02;1.37;;;1.27;;
8982;SDS011;20979;59.850;10.660;2023-04-01T01:39:31;2.57;;;2.20;;
8982;SDS011;20979;59.850;10.660;2023-04-01T01:42:01;16.17;;;10.70;;
8982;SDS011;20979;59.850;10.660;2023-04-01T01:44:29;9.77;;;5.50;;
8982;SDS011;20979;59.850;10.660;2023-04-01T01:46:57;17.60;;;10.23;;
8982;SDS011;20979;59.850;10.660;2023-04-01T01:49:25;13.03;;;7.10;;
8982;SDS011;20979;59.850;10.660;2023-04-01T01:51:55;9.60;;;5.63;;
8982;SDS011;20979;59.850;10.660;2023-04-01T01:54:24;9.97;;;5.77;;
8982;SDS011;20979;59.850;10.660;2023-04-01T01:56:52;10.87;;;6.30;;
8982;SDS011;20979;59.850;10.660;2023-04-01T01:59:22;13.10;;;7.07;;
8982;SDS011;20979;59.850;10.660;2023-04-01T02:01:52;8.40;;;5.43;;
8982;SDS011;20979;59.850;10.660;2023-04-01T02:04:21;7.70;;;4.90;;
8982;SDS011;20979;59.850;10.660;2023-04-01T02:06:50;5.73;;;3.40;;
8982;SDS011;20979;59.850;10.660;2023-04-01T02:09:18;3.13;;;2.50;;
8982;SDS011;20979;59.850;10.660;2023-04-01T02:11:48;3.23;;;2.30;;
8982;SDS011;20979;59.850;10.660;2023-04-01T02:14:18;2.60;;;2.40;;
8982;SDS011;20979;59.850;10.660;2023-04-01T02:16:49;2.07;;;1.50;;
8982;SDS011;20979;59.850;10.660;2023-04-01T02:19:17;2.37;;;1.67;;
8982;SDS011;20979;59.850;10.660;2023-04-01T02:21:47;1.80;;;1.20;;
8982;SDS011;20979;59.850;10.660;2023-04-01T02:24:17;1.67;;;1.33;;
8982;SDS011;20979;59.850;10.660;2023-04-01T02:26:46;1.10;;;1.10;;
8982;SDS011;20979;59.850;10.660;2023-04-01T02:29:15;1.80;;;1.17;;
8982;SDS011;20979;59.850;10.660;2023-04-01T02:31:43;1.00;;;0.90;;
8982;SDS011;20979;59.850;10.660;2023-04-01T02:34:12;2.60;;;1.20;;
8982;SDS011;20979;59.850;10.660;2023-04-01T02:36:41;1.27;;;1.10;;
8982;SDS011;20979;59.850;10.660;2023-04-01T02:39:08;1.00;;;0.90;;
8982;SDS011;20979;59.850;10.660;2023-04-01T02:41:38;1.30;;;1.20;;
8982;SDS011;20979;59.850;10.660;2023-04-01T02:44:06;1.50;;;1.27;;
8982;SDS011;20979;59.850;10.660;2023-04-01T02:46:35;2.07;;;1.30;;
8982;SDS011;20979;59.850;10.660;2023-04-01T02:49:03;3.93;;;1.90;;
8982;SDS011;20979;59.850;10.660;2023-04-01T02:51:30;1.80;;;1.67;;
8982;SDS011;20979;59.850;10.660;2023-04-01T02:53:57;6.37;;;2.00;;
8982;SDS011;20979;59.850;10.660;2023-04-01T02:56:25;1.40;;;1.30;;
8982;SDS011;20979;59.850;10.660;2023-04-01T02:58:52;1.13;;;1.10;;
8982;SDS011;20979;59.850;10.660;2023-04-01T03:01:20;1.43;;;1.27;;
8982;SDS011;20979;59.850;10.660;2023-04-01T03:03:49;1.83;;;1.30;;
8982;SDS011;20979;59.850;10.660;2023-04-01T03:06:16;1.10;;;1.10;;
8982;SDS011;20979;59.850;10.660;2023-04-01T03:08:44;1.40;;;1.17;;
8982;SDS011;20979;59.850;10.660;2023-04-01T03:11:12;2.20;;;1.10;;
8982;SDS011;20979;59.850;10.660;2023-04-01T03:13:39;1.47;;;0.90;;
8982;SDS011;20979;59.850;10.660;2023-04-01T03:16:07;1.03;;;0.90;;
8982;SDS011;20979;59.850;10.660;2023-04-01T03:18:34;1.27;;;1.17;;
8982;SDS011;20979;59.850;10.660;2023-04-01T03:21:13;1.00;;;1.00;;
8982;SDS011;20979;59.850;10.660;2023-04-01T03:23:41;1.03;;;0.97;;
8982;SDS011;20979;59.850;10.660;2023-04-01T03:26:08;1.20;;;1.10;;
8982;SDS011;20979;59.850;10.660;2023-04-01T03:28:35;1.20;;;1.10;;
8982;SDS011;20979;59.850;10.660;2023-04-01T03:31:03;1.17;;;1.17;;
8982;SDS011;20979;59.850;10.660;2023-04-01T03:33:30;2.87;;;1.50;;
8982;SDS011;20979;59.850;10.660;2023-04-01T03:35:58;1.17;;;1.17;;
8982;SDS011;20979;59.850;10.660;2023-04-01T03:38:27;1.10;;;1.00;;
8982;SDS011;20979;59.850;10.660;2023-04-01T03:40:54;1.03;;;0.93;;
8982;SDS011;20979;59.850;10.660;2023-04-01T03:43:21;1.07;;;1.00;;
8982;SDS011;20979;59.850;10.660;2023-04-01T03:45:49;1.10;;;1.10;;
8982;SDS011;20979;59.850;10.660;2023-04-01T03:48:17;1.13;;;1.03;;
8982;SDS011;20979;59.850;10.660;2023-04-01T03:50:45;1.13;;;1.03;;
8982;SDS011;20979;59.850;10.660;2023-04-01T03:53:12;1.17;;;1.00;;
8982;SDS011;20979;59.850;10.660;2023-04-01T03:55:41;3.80;;;1.00;;
8982;SDS011;20979;59.850;10.660;2023-04-01T03:58:09;1.60;;;1.00;;
8982;SDS011;20979;59.850;10.660;2023-04-01T04:00:36;1.47;;;1.10;;
8982;SDS011;20979;59.850;10.660;2023-04-01T04:03:05;1.30;;;0.90;;
8982;SDS011;20979;59.850;10.660;2023-04-01T04:05:32;3.73;;;1.20;;
8982;SDS011;20979;59.850;10.660;2023-04-01T04:08:00;1.83;;;0.90;;
8982;SDS011;20979;59.850;10.660;2023-04-01T04:10:27;0.90;;;0.90;;
8982;SDS011;20979;59.850;10.660;2023-04-01T04:12:56;1.40;;;1.00;;
8982;SDS011;20979;59.850;10.660;2023-04-01T04:15:23;0.90;;;0.90;;
8982;SDS011;20979;59.850;10.660;2023-04-01T04:17:51;2.17;;;1.10;;
8982;SDS011;20979;59.850;10.660;2023-04-01T04:20:18;1.57;;;1.30;;
8982;SDS011;20979;59.850;10.660;2023-04-01T04:22:45;1.40;;;1.00;;
8982;SDS011;20979;59.850;10.660;2023-04-01T04:25:13;0.80;;;0.80;;
8982;SDS011;20979;59.850;10.660;2023-04-01T04:27:40;0.80;;;0.80;;
8982;SDS011;20979;59.850;10.660;2023-04-01T04:30:09;1.10;;;1.00;;
8982;SDS011;20979;59.850;10.660;2023-04-01T04:32:37;1.40;;;0.93;;
8982;SDS011;20979;59.850;10.660;2023-04-01T04:35:06;1.20;;;1.10;;
8982;SDS011;20979;59.850;10.660;2023-04-01T04:37:33;1.40;;;1.10;;
8982;SDS011;20979;59.850;10.660;2023-04-01T04:40:01;1.87;;;1.00;;
8982;SDS011;20979;59.850;10.660;2023-04-01T04:42:28;1.00;;;1.00;;
8982;SDS011;20979;59.850;10.660;2023-04-01T04:44:55;1.10;;;1.00;;
8982;SDS011;20979;59.850;10.660;2023-04-01T04:47:24;1.90;;;0.77;;
8982;SDS011;20979;59.850;10.660;2023-04-01T04:49:51;0.80;;;0.80;;
8982;SDS011;20979;59.850;10.660;2023-04-01T04:52:22;1.13;;;0.90;;
8982;SDS011;20979;59.850;10.660;2023-04-01T04:54:49;1.03;;;0.70;;
8982;SDS011;20979;59.850;10.660;2023-04-01T04:57:17;0.90;;;0.90;;
8982;SDS011;20979;59.850;10.660;2023-04-01T04:59:46;0.77;;;0.77;;
8982;SDS011;20979;59.850;10.660;2023-04-01T05:02:14;1.17;;;1.07;;
8982;SDS011;20979;59.850;10.660;2023-04-01T05:04:43;1.17;;;1.10;;
8982;SDS011;20979;59.850;10.660;2023-04-01T05:07:10;1.27;;;0.73;;
8982;SDS011;20979;59.850;10.660;2023-04-01T05:09:37;0.90;;;0.90;;
8982;SDS011;20979;59.850;10.660;2023-04-01T05:12:10;0.73;;;0.73;;
8982;SDS011;20979;59.850;10.660;2023-04-01T05:14:38;1.20;;;1.10;;
8982;SDS011;20979;59.850;10.660;2023-04-01T05:17:07;1.73;;;0.73;;
8982;SDS011;20979;59.850;10.660;2023-04-01T05:19:35;0.87;;;0.87;;
8982;SDS011;20979;59.850;10.660;2023-04-01T05:22:04;0.90;;;0.90;;
8982;SDS011;20979;59.850;10.660;2023-04-01T05:24:32;0.60;;;0.60;;
8982;SDS011;20979;59.850;10.660;2023-04-01T05:26:59;0.80;;;0.80;;
8982;SDS011;20979;59.850;10.660;2023-04-01T05:29:27;3.40;;;1.10;;
8982;SDS011;20979;59.850;10.660;2023-04-01T05:31:54;2.20;;;0.90;;
8982;SDS011;20979;59.850;10.660;2023-04-01T05:34:21;1.03;;;0.93;;
8982;SDS011;20979;59.850;10.660;2023-04-01T05:36:49;0.90;;;0.83;;
8982;SDS011;20979;59.850;10.660;2023-04-01T05:39:18;2.37;;;0.97;;
8982;SDS011;20979;59.850;10.660;2023-04-01T05:41:46;4.57;;;2.00;;
8982;SDS011;20979;59.850;10.660;2023-04-01T05:44:13;3.33;;;1.47;;
8982;SDS011;20979;59.850;10.660;2023-04-01T05:46:40;3.03;;;1.20;;
8982;SDS011;20979;59.850;10.660;2023-04-01T05:49:08;4.87;;;1.40;;
8982;SDS011;20979;59.850;10.660;2023-04-01T05:51:35;3.03;;;1.40;;
8982;SDS011;20979;59.850;10.660;2023-04-01T05:54:03;1.07;;;1.07;;
8982;SDS011;20979;59.850;10.660;2023-04-01T05:56:32;2.10;;;1.30;;
8982;SDS011;20979;59.850;10.660;2023-04-01T05:58:59;1.70;;;1.60;;
8982;SDS011;20979;59.850;10.660;2023-04-01T06:01:27;2.17;;;2.07;;
8982;SDS011;20979;59.850;10.660;2023-04-01T06:03:54;1.97;;;1.20;;
8982;SDS011;20979;59.850;10.660;2023-04-01T06:06:24;1.43;;;1.33;;
8982;SDS011;20979;59.850;10.660;2023-04-01T06:08:52;1.10;;;1.00;;
8982;SDS011;20979;59.850;10.660;2023-04-01T06:11:23;1.10;;;1.10;;
8982;SDS011;20979;59.850;10.660;2023-04-01T06:14:00;1.00;;;0.90;;
8982;SDS011;20979;59.850;10.660;2023-04-01T06:16:32;1.57;;;0.87;;
8982;SDS011;20979;59.850;10.660;2023-04-01T06:19:05;0.90;;;0.80;;
8982;SDS011;20979;59.850;10.660;2023-04-01T06:24:37;2.23;;;0.90;;
8982;SDS011;20979;59.850;10.660;2023-04-01T06:27:07;0.87;;;0.87;;
8982;SDS011;20979;59.850;10.660;2023-04-01T06:29:51;1.13;;;0.80;;
8982;SDS011;20979;59.850;10.660;2023-04-01T06:32:28;1.10;;;0.80;;
8982;SDS011;20979;59.850;10.660;2023-04-01T06:40:44;0.97;;;0.90;;
8982;SDS011;20979;59.850;10.660;2023-04-01T06:43:17;0.70;;;0.70;;
8982;SDS011;20979;59.850;10.660;2023-04-01T06:45:51;1.43;;;0.77;;
8982;SDS011;20979;59.850;10.660;2023-04-01T06:48:29;1.27;;;0.97;;
8982;SDS011;20979;59.850;10.660;2023-04-01T06:51:02;1.30;;;1.20;;
8982;SDS011;20979;59.850;10.660;2023-04-01T06:53:33;1.87;;;1.00;;
8982;SDS011;20979;59.850;10.660;2023-04-01T06:56:04;2.13;;;1.20;;
8982;SDS011;20979;59.850;10.660;2023-04-01T06:58:34;0.80;;;0.80;;
8982;SDS011;20979;59.850;10.660;2023-04-01T07:01:06;1.97;;;1.10;;
8982;SDS011;20979;59.850;10.660;2023-04-01T07:03:35;0.93;;;0.93;;
8982;SDS011;20979;59.850;10.660;2023-04-01T07:06:04;1.10;;;1.10;;
8982;SDS011;20979;59.850;10.660;2023-04-01T07:08:33;0.80;;;0.80;;
8982;SDS011;20979;59.850;10.660;2023-04-01T07:11:02;1.30;;;0.90;;
8982;SDS011;20979;59.850;10.660;2023-04-01T07:13:31;1.30;;;1.07;;
8982;SDS011;20979;59.850;10.660;2023-04-01T07:16:07;1.13;;;0.90;;
8982;SDS011;20979;59.850;10.660;2023-04-01T07:18:37;1.60;;;0.80;;
8982;SDS011;20979;59.850;10.660;2023-04-01T07:21:09;0.70;;;0.70;;
8982;SDS011;20979;59.850;10.660;2023-04-01T07:23:38;2.53;;;0.90;;
8982;SDS011;20979;59.850;10.660;2023-04-01T07:26:11;1.00;;;1.00;;
8982;SDS011;20979;59.850;10.660;2023-04-01T07:28:41;0.60;;;0.60;;
8982;SDS011;20979;59.850;10.660;2023-04-01T07:31:13;0.70;;;0.70;;
8982;SDS011;20979;59.850;10.660;2023-04-01T07:33:44;0.60;;;0.60;;
8982;SDS011;20979;59.850;10.660;2023-04-01T07:36:13;0.90;;;0.90;;
8982;SDS011;20979;59.850;10.660;2023-04-01T07:38:44;0.83;;;0.73;;
8982;SDS011;20979;59.850;10.660;2023-04-01T07:41:16;2.10;;;1.00;;
8982;SDS011;20979;59.850;10.660;2023-04-01T07:43:53;0.80;;;0.80;;
8982;SDS011;20979;59.850;10.660;2023-04-01T07:46:29;1.80;;;1.40;;
8982;SDS011;20979;59.850;10.660;2023-04-01T07:49:01;2.43;;;1.10;;
8982;SDS011;20979;59.850;10.660;2023-04-01T07:51:31;2.13;;;1.03;;
8982;SDS011;20979;59.850;10.660;2023-04-01T07:54:03;1.67;;;1.17;;
8982;SDS011;20979;59.850;10.660;2023-04-01T07:56:34;2.03;;;1.00;;
8982;SDS011;20979;59.850;10.660;2023-04-01T07:59:06;1.80;;;0.80;;
8982;SDS011;20979;59.850;10.660;2023-04-01T08:01:39;0.83;;;0.83;;
8982;SDS011;20979;59.850;10.660;2023-04-01T08:04:15;0.83;;;0.77;;
8982;SDS011;20979;59.850;10.660;2023-04-01T08:06:45;0.77;;;0.77;;
8982;SDS011;20979;59.850;10.660;2023-04-01T08:09:15;1.03;;;0.93;;
8982;SDS011;20979;59.850;10.660;2023-04-01T08:11:49;2.70;;;1.20;;
8982;SDS011;20979;59.850;10.660;2023-04-01T08:14:20;1.57;;;0.70;;
8982;SDS011;20979;59.850;10.660;2023-04-01T08:16:52;1.30;;;0.80;;
8982;SDS011;20979;59.850;10.660;2023-04-01T08:19:28;2.10;;;0.90;;
8982;SDS011;20979;59.850;10.660;2023-04-01T08:21:58;1.70;;;0.87;;
8982;SDS011;20979;59.850;10.660;2023-04-01T08:24:33;2.23;;;0.80;;
8982;SDS011;20979;59.850;10.660;2023-04-01T08:27:03;2.83;;;0.80;;
8982;SDS011;20979;59.850;10.660;2023-04-01T08:29:33;1.33;;;0.80;;
8982;SDS011;20979;59.850;10.660;2023-04-01T08:32:06;1.20;;;1.00;;
8982;SDS011;20979;59.850;10.660;2023-04-01T08:34:37;1.13;;;0.90;;
8982;SDS011;20979;59.850;10.660;2023-04-01T08:37:07;1.27;;;1.17;;
8982;SDS011;20979;59.850;10.660;2023-04-01T08:39:36;1.83;;;1.27;;
8982;SDS011;20979;59.850;10.660;2023-04-01T08:42:48;1.47;;;1.37;;
8982;SDS011;20979;59.850;10.660;2023-04-01T08:45:04;2.43;;;1.27;;
8982;SDS011;20979;59.850;10.660;2023-04-01T08:47:40;1.00;;;1.00;;
8982;SDS011;20979;59.850;10.660;2023-04-01T08:50:22;1.87;;;1.20;;
8982;SDS011;20979;59.850;10.660;2023-04-01T08:52:52;2.03;;;1.10;;
8982;SDS011;20979;59.850;10.660;2023-04-01T08:55:27;1.17;;;0.70;;
8982;SDS011;20979;59.850;10.660;2023-04-01T09:01:11;1.90;;;1.17;;
8982;SDS011;20979;59.850;10.660;2023-04-01T09:03:58;2.77;;;0.80;;
8982;SDS011;20979;59.850;10.660;2023-04-01T09:06:52;0.80;;;0.80;;
8982;SDS011;20979;59.850;10.660;2023-04-01T09:12:25;1.33;;;1.10;;
8982;SDS011;20979;59.850;10.660;2023-04-01T09:14:58;1.10;;;1.00;;
8982;SDS011;20979;59.850;10.660;2023-04-01T09:17:38;2.70;;;0.77;;
8982;SDS011;20979;59.850;10.660;2023-04-01T09:20:19;1.53;;;1.00;;
8982;SDS011;20979;59.850;10.660;2023-04-01T09:23:02;1.57;;;0.80;;
8982;SDS011;20979;59.850;10.660;2023-04-01T09:28:15;2.57;;;0.70;;
8982;SDS011;20979;59.850;10.660;2023-04-01T09:33:54;1.07;;;0.60;;
8982;SDS011;20979;59.850;10.660;2023-04-01T09:36:43;2.13;;;0.70;;
8982;SDS011;20979;59.850;10.660;2023-04-01T09:39:22;2.00;;;0.90;;
8982;SDS011;20979;59.850;10.660;2023-04-01T09:41:56;1.30;;;0.90;;
8982;SDS011;20979;59.850;10.660;2023-04-01T09:44:26;1.20;;;0.67;;
8982;SDS011;20979;59.850;10.660;2023-04-01T09:47:01;2.40;;;0.90;;
8982;SDS011;20979;59.850;10.660;2023-04-01T09:52:23;1.30;;;0.80;;
8982;SDS011;20979;59.850;10.660;2023-04-01T09:54:56;1.33;;;0.90;;
8982;SDS011;20979;59.850;10.660;2023-04-01T09:57:51;0.80;;;0.80;;
8982;SDS011;20979;59.850;10.660;2023-04-01T10:03:40;2.10;;;0.93;;
8982;SDS011;20979;59.850;10.660;2023-04-01T10:06:32;1.20;;;0.80;;
8982;SDS011;20979;59.850;10.660;2023-04-01T10:17:56;0.77;;;0.77;;
8982;SDS011;20979;59.850;10.660;2023-04-01T10:23:27;1.43;;;0.80;;
8982;SDS011;20979;59.850;10.660;2023-04-01T10:31:49;0.73;;;0.70;;
8982;SDS011;20979;59.850;10.660;2023-04-01T10:34:29;0.80;;;0.63;;
8982;SDS011;20979;59.850;10.660;2023-04-01T10:37:07;0.97;;;0.63;;
8982;SDS011;20979;59.850;10.660;2023-04-01T10:42:54;1.20;;;0.83;;
8982;SDS011;20979;59.850;10.660;2023-04-01T10:48:13;0.50;;;0.40;;
8982;SDS011;20979;59.850;10.660;2023-04-01T10:53:39;3.37;;;0.67;;
8982;SDS011;20979;59.850;10.660;2023-04-01T10:59:02;1.10;;;0.50;;
8982;SDS011;20979;59.850;10.660;2023-04-01T11:07:44;1.00;;;0.63;;
8982;SDS011;20979;59.850;10.660;2023-04-01T11:16:35;1.63;;;0.57;;
8982;SDS011;20979;59.850;10.660;2023-04-01T11:19:22;0.73;;;0.53;;
8982;SDS011;20979;59.850;10.660;2023-04-01T11:22:09;0.63;;;0.50;;
8982;SDS011;20979;59.850;10.660;2023-04-01T11:24:50;1.23;;;0.63;;
8982;SDS011;20979;59.850;10.660;2023-04-01T11:27:29;1.00;;;0.57;;
8982;SDS011;20979;59.850;10.660;2023-04-01T11:30:17;3.13;;;0.67;;
8982;SDS011;20979;59.850;10.660;2023-04-01T11:32:57;1.20;;;0.50;;
8982;SDS011;20979;59.850;10.660;2023-04-01T11:35:33;0.97;;;0.50;;
8982;SDS011;20979;59.850;10.660;2023-04-01T11:38:19;1.47;;;0.70;;
8982;SDS011;20979;59.850;10.660;2023-04-01T11:40:52;1.83;;;0.67;;
8982;SDS011;20979;59.850;10.660;2023-04-01T11:43:26;0.53;;;0.53;;
8982;SDS011;20979;59.850;10.660;2023-04-01T11:45:56;0.57;;;0.40;;
8982;SDS011;20979;59.850;10.660;2023-04-01T11:48:41;0.73;;;0.60;;
8982;SDS011;20979;59.850;10.660;2023-04-01T11:54:14;1.03;;;0.60;;
8982;SDS011;20979;59.850;10.660;2023-04-01T11:56:51;0.83;;;0.60;;
8982;SDS011;20979;59.850;10.660;2023-04-01T12:02:11;1.53;;;0.60;;
8982;SDS011;20979;59.850;10.660;2023-04-01T12:04:54;1.53;;;0.67;;
8982;SDS011;20979;59.850;10.660;2023-04-01T12:07:24;1.43;;;0.50;;
8982;SDS011;20979;59.850;10.660;2023-04-01T12:10:02;0.80;;;0.53;;
8982;SDS011;20979;59.850;10.660;2023-04-01T12:12:35;0.73;;;0.67;;
8982;SDS011;20979;59.850;10.660;2023-04-01T12:15:11;0.50;;;0.40;;
8982;SDS011;20979;59.850;10.660;2023-04-01T12:17:56;0.73;;;0.57;;
8982;SDS011;20979;59.850;10.660;2023-04-01T12:20:33;1.03;;;0.60;;
8982;SDS011;20979;59.850;10.660;2023-04-01T12:23:19;1.43;;;0.67;;
8982;SDS011;20979;59.850;10.660;2023-04-01T12:28:41;1.43;;;0.70;;
8982;SDS011;20979;59.850;10.660;2023-04-01T12:31:30;0.60;;;0.60;;
8982;SDS011;20979;59.850;10.660;2023-04-01T12:36:55;1.13;;;0.30;;
8982;SDS011;20979;59.850;10.660;2023-04-01T12:42:19;1.13;;;0.73;;
8982;SDS011;20979;59.850;10.660;2023-04-01T12:45:07;0.63;;;0.60;;
8982;SDS011;20979;59.850;10.660;2023-04-01T12:47:51;0.47;;;0.47;;
8982;SDS011;20979;59.850;10.660;2023-04-01T12:50:36;0.50;;;0.40;;
8982;SDS011;20979;59.850;10.660;2023-04-01T12:53:16;2.10;;;0.60;;
8982;SDS011;20979;59.850;10.660;2023-04-01T12:56:07;0.67;;;0.60;;
8982;SDS011;20979;59.850;10.660;2023-04-01T12:58:40;0.80;;;0.60;;
8982;SDS011;20979;59.850;10.660;2023-04-01T13:01:45;1.77;;;0.70;;
8982;SDS011;20979;59.850;10.660;2023-04-01T13:07:21;1.00;;;0.77;;
8982;SDS011;20979;59.850;10.660;2023-04-01T13:09:52;0.97;;;0.60;;
8982;SDS011;20979;59.850;10.660;2023-04-01T13:12:44;1.43;;;0.50;;
8982;SDS011;20979;59.850;10.660;2023-04-01T13:18:11;0.90;;;0.50;;
8982;SDS011;20979;59.850;10.660;2023-04-01T13:20:44;1.40;;;0.60;;
8982;SDS011;20979;59.850;10.660;2023-04-01T13:23:16;1.23;;;0.60;;
8982;SDS011;20979;59.850;10.660;2023-04-01T13:25:49;0.73;;;0.43;;
8982;SDS011;20979;59.850;10.660;2023-04-01T13:28:21;0.87;;;0.53;;
8982;SDS011;20979;59.850;10.660;2023-04-01T13:30:54;0.73;;;0.60;;
8982;SDS011;20979;59.850;10.660;2023-04-01T13:33:25;0.97;;;0.60;;
8982;SDS011;20979;59.850;10.660;2023-04-01T13:35:57;0.70;;;0.57;;
8982;SDS011;20979;59.850;10.660;2023-04-01T13:38:39;0.77;;;0.60;;
8982;SDS011;20979;59.850;10.660;2023-04-01T13:41:13;1.80;;;0.70;;
8982;SDS011;20979;59.850;10.660;2023-04-01T13:43:48;1.13;;;0.70;;
8982;SDS011;20979;59.850;10.660;2023-04-01T13:46:26;1.00;;;0.63;;
8982;SDS011;20979;59.850;10.660;2023-04-01T13:49:05;0.90;;;0.60;;
8982;SDS011;20979;59.850;10.660;2023-04-01T13:51:43;1.40;;;0.57;;
8982;SDS011;20979;59.850;10.660;2023-04-01T13:54:22;0.97;;;0.60;;
8982;SDS011;20979;59.850;10.660;2023-04-01T13:57:15;0.70;;;0.70;;
8982;SDS011;20979;59.850;10.660;2023-04-01T13:59:59;0.60;;;0.57;;
8982;SDS011;20979;59.850;10.660;2023-04-01T14:02:38;0.73;;;0.67;;
8982;SDS011;20979;59.850;10.660;2023-04-01T14:07:56;0.83;;;0.80;;
8982;SDS011;20979;59.850;10.660;2023-04-01T14:10:40;3.03;;;1.07;;
8982;SDS011;20979;59.850;10.660;2023-04-01T14:13:22;2.67;;;0.63;;
8982;SDS011;20979;59.850;10.660;2023-04-01T14:16:00;0.70;;;0.63;;
8982;SDS011;20979;59.850;10.660;2023-04-01T14:18:34;2.47;;;1.07;;
8982;SDS011;20979;59.850;10.660;2023-04-01T14:21:10;4.53;;;1.73;;
8982;SDS011;20979;59.850;10.660;2023-04-01T14:23:52;0.97;;;0.60;;
8982;SDS011;20979;59.850;10.660;2023-04-01T14:29:28;0.80;;;0.50;;
8982;SDS011;20979;59.850;10.660;2023-04-01T14:32:00;1.13;;;0.70;;
8982;SDS011;20979;59.850;10.660;2023-04-01T14:37:37;0.60;;;0.60;;
8982;SDS011;20979;59.850;10.660;2023-04-01T14:40:15;0.70;;;0.70;;
8982;SDS011;20979;59.850;10.660;2023-04-01T14:42:59;0.57;;;0.43;;
8982;SDS011;20979;59.850;10.660;2023-04-01T14:45:35;2.63;;;0.83;;
8982;SDS011;20979;59.850;10.660;2023-04-01T14:48:15;1.17;;;0.50;;
8982;SDS011;20979;59.850;10.660;2023-04-01T14:50:45;0.50;;;0.50;;
8982;SDS011;20979;59.850;10.660;2023-04-01T14:53:16;0.97;;;0.63;;
8982;SDS011;20979;59.850;10.660;2023-04-01T14:56:01;1.63;;;0.70;;
8982;SDS011;20979;59.850;10.660;2023-04-01T14:58:39;2.13;;;0.90;;
8982;SDS011;20979;59.850;10.660;2023-04-01T15:04:07;1.60;;;0.83;;
8982;SDS011;20979;59.850;10.660;2023-04-01T15:06:45;0.73;;;0.60;;
8982;SDS011;20979;59.850;10.660;2023-04-01T15:09:18;1.00;;;0.60;;
8982;SDS011;20979;59.850;10.660;2023-04-01T15:11:56;1.80;;;0.60;;
8982;SDS011;20979;59.850;10.660;2023-04-01T15:14:39;0.73;;;0.60;;
8982;SDS011;20979;59.850;10.660;2023-04-01T15:17:19;0.77;;;0.70;;
8982;SDS011;20979;59.850;10.660;2023-04-01T15:20:04;1.07;;;0.93;;
8982;SDS011;20979;59.850;10.660;2023-04-01T15:22:57;1.17;;;0.70;;
8982;SDS011;20979;59.850;10.660;2023-04-01T15:25:35;1.13;;;0.70;;
8982;SDS011;20979;59.850;10.660;2023-04-01T15:28:11;0.63;;;0.47;;
8982;SDS011;20979;59.850;10.660;2023-04-01T15:30:52;1.07;;;0.70;;
8982;SDS011;20979;59.850;10.660;2023-04-01T15:33:30;0.70;;;0.70;;
8982;SDS011;20979;59.850;10.660;2023-04-01T15:36:03;1.40;;;0.70;;
8982;SDS011;20979;59.850;10.660;2023-04-01T15:38:35;0.57;;;0.57;;
8982;SDS011;20979;59.850;10.660;2023-04-01T15:41:07;0.50;;;0.50;;
8982;SDS011;20979;59.850;10.660;2023-04-01T15:43:52;1.03;;;0.70;;
8982;SDS011;20979;59.850;10.660;2023-04-01T15:49:08;0.90;;;0.60;;
8982;SDS011;20979;59.850;10.660;2023-04-01T15:54:45;0.93;;;0.73;;
8982;SDS011;20979;59.850;10.660;2023-04-01T15:57:16;1.27;;;0.70;;
8982;SDS011;20979;59.850;10.660;2023-04-01T15:59:52;0.53;;;0.50;;
8982;SDS011;20979;59.850;10.660;2023-04-01T16:02:21;0.47;;;0.43;;
8982;SDS011;20979;59.850;10.660;2023-04-01T16:13:30;0.60;;;0.60;;
8982;SDS011;20979;59.850;10.660;2023-04-01T16:16:05;1.47;;;0.70;;
8982;SDS011;20979;59.850;10.660;2023-04-01T16:18:41;1.70;;;0.60;;
8982;SDS011;20979;59.850;10.660;2023-04-01T16:21:26;1.07;;;0.60;;
8982;SDS011;20979;59.850;10.660;2023-04-01T16:24:02;1.43;;;0.70;;
8982;SDS011;20979;59.850;10.660;2023-04-01T16:26:33;2.00;;;1.20;;
8982;SDS011;20979;59.850;10.660;2023-04-01T16:29:09;1.17;;;1.10;;
8982;SDS011;20979;59.850;10.660;2023-04-01T16:31:38;0.70;;;0.70;;
8982;SDS011;20979;59.850;10.660;2023-04-01T16:34:11;2.43;;;0.90;;
8982;SDS011;20979;59.850;10.660;2023-04-01T16:36:42;1.60;;;0.60;;
8982;SDS011;20979;59.850;10.660;2023-04-01T16:39:19;1.00;;;0.70;;
8982;SDS011;20979;59.850;10.660;2023-04-01T16:41:54;0.60;;;0.60;;
8982;SDS011;20979;59.850;10.660;2023-04-01T16:44:28;0.70;;;0.60;;
8982;SDS011;20979;59.850;10.660;2023-04-01T16:46:58;1.17;;;0.60;;
8982;SDS011;20979;59.850;10.660;2023-04-01T16:49:30;1.77;;;0.70;;
8982;SDS011;20979;59.850;10.660;2023-04-01T16:54:43;1.20;;;0.70;;
8982;SDS011;20979;59.850;10.660;2023-04-01T16:57:18;1.23;;;0.73;;
8982;SDS011;20979;59.850;10.660;2023-04-01T16:59:52;1.17;;;0.60;;
8982;SDS011;20979;59.850;10.660;2023-04-01T17:02:26;0.57;;;0.57;;
8982;SDS011;20979;59.850;10.660;2023-04-01T17:04:58;0.80;;;0.80;;
8982;SDS011;20979;59.850;10.660;2023-04-01T17:07:31;0.70;;;0.70;;
8982;SDS011;20979;59.850;10.660;2023-04-01T17:12:46;2.53;;;1.13;;
8982;SDS011;20979;59.850;10.660;2023-04-01T17:15:17;1.50;;;1.20;;
8982;SDS011;20979;59.850;10.660;2023-04-01T17:17:49;2.17;;;1.33;;
8982;SDS011;20979;59.850;10.660;2023-04-01T17:23:04;4.73;;;1.40;;
8982;SDS011;20979;59.850;10.660;2023-04-01T17:28:25;3.77;;;1.77;;
8982;SDS011;20979;59.850;10.660;2023-04-01T17:30:58;3.80;;;1.60;;